sensor_id;sensor_type;location;lat;lon;timestamp;pressure;altitude;pressure_sealevel;temperature;humidity
78584;BME280;67880;46.082;18.234;2023-05-27T00:00:32;99841.53;;;19.32;62.56
78584;BME280;67880;46.082;18.234;2023-05-27T00:01:20;99862.50;;;19.31;62.55
78584;BME280;67880;46.082;18.234;2023-05-27T00:01:51;99847.00;;;19.32;62.30
78584;BME280;67880;46.082;18.234;2023-05-27T00:02:21;99852.25;;;19.27;62.58
78584;BME280;67880;46.082;18.234;2023-05-27T00:02:56;99840.94;;;19.30;62.82
78584;BME280;67880;46.082;18.234;2023-05-27T00:03:29;99851.81;;;19.30;62.44
78584;BME280;67880;46.082;18.234;2023-05-27T00:04:00;99843.44;;;19.31;62.58
78584;BME280;67880;46.082;18.234;2023-05-27T00:04:31;99840.94;;;19.30;62.81
78584;BME280;67880;46.082;18.234;2023-05-27T00:05:01;99841.97;;;19.29;62.26
78584;BME280;67880;46.082;18.234;2023-05-27T00:05:32;99845.31;;;19.31;62.72
78584;BME280;67880;46.082;18.234;2023-05-27T00:06:03;99851.41;;;19.33;62.55
78584;BME280;67880;46.082;18.234;2023-05-27T00:06:33;99841.97;;;19.29;62.75
78584;BME280;67880;46.082;18.234;2023-05-27T00:07:04;99856.03;;;19.32;62.25
78584;BME280;67880;46.082;18.234;2023-05-27T00:07:37;99841.13;;;19.35;62.23
78584;BME280;67880;46.082;18.234;2023-05-27T00:08:07;99841.13;;;19.35;62.67
78584;BME280;67880;46.082;18.234;2023-05-27T00:08:38;99835.91;;;19.33;62.09
78584;BME280;67880;46.082;18.234;2023-05-27T00:09:09;99850.59;;;19.32;62.15
78584;BME280;67880;46.082;18.234;2023-05-27T00:09:39;99845.75;;;19.34;62.62
78584;BME280;67880;46.082;18.234;2023-05-27T00:10:10;99845.75;;;19.34;62.42
78584;BME280;67880;46.082;18.234;2023-05-27T00:10:43;99845.53;;;19.36;62.54
78584;BME280;67880;46.082;18.234;2023-05-27T00:11:14;99840.09;;;19.36;62.11
78584;BME280;67880;46.082;18.234;2023-05-27T00:11:45;99848.47;;;19.34;62.68
78584;BME280;67880;46.082;18.234;2023-05-27T00:12:15;99844.91;;;19.34;62.55
78584;BME280;67880;46.082;18.234;2023-05-27T00:12:46;99843.88;;;19.35;62.68
78584;BME280;67880;46.082;18.234;2023-05-27T00:13:16;99835.69;;;19.35;62.25
78584;BME280;67880;46.082;18.234;2023-05-27T00:13:47;99841.13;;;19.35;62.39
78584;BME280;67880;46.082;18.234;2023-05-27T00:14:18;99842.81;;;19.36;62.52
78584;BME280;67880;46.082;18.234;2023-05-27T00:14:50;99845.53;;;19.36;62.25
78584;BME280;67880;46.082;18.234;2023-05-27T00:15:21;99838.00;;;19.31;62.68
78584;BME280;67880;46.082;18.234;2023-05-27T00:15:52;99837.38;;;19.36;62.55
78584;BME280;67880;46.082;18.234;2023-05-27T00:16:22;99835.69;;;19.35;62.24
78584;BME280;67880;46.082;18.234;2023-05-27T00:16:53;99840.31;;;19.34;62.20
78584;BME280;67880;46.082;18.234;2023-05-27T00:17:25;99843.44;;;19.31;62.65
78584;BME280;67880;46.082;18.234;2023-05-27T00:17:55;99841.16;;;19.28;62.33
78584;BME280;67880;46.082;18.234;2023-05-27T00:18:26;99842.81;;;19.29;62.26
78584;BME280;67880;46.082;18.234;2023-05-27T00:18:57;99841.38;;;19.27;62.58
78584;BME280;67880;46.082;18.234;2023-05-27T00:19:31;99843.03;;;19.28;62.52
78584;BME280;67880;46.082;18.234;2023-05-27T00:20:02;99835.94;;;19.27;62.37
78584;BME280;67880;46.082;18.234;2023-05-27T00:20:38;99842.19;;;19.27;62.74
78584;BME280;67880;46.082;18.234;2023-05-27T00:21:08;99845.75;;;19.28;62.54
78584;BME280;67880;46.082;18.234;2023-05-27T00:21:39;99839.03;;;19.30;62.30
78584;BME280;67880;46.082;18.234;2023-05-27T00:22:10;99848.69;;;19.33;62.45
78584;BME280;67880;46.082;18.234;2023-05-27T00:22:41;99843.25;;;19.26;62.62
78584;BME280;67880;46.082;18.234;2023-05-27T00:23:12;99840.94;;;19.30;62.33
78584;BME280;67880;46.082;18.234;2023-05-27T00:23:45;99848.88;;;19.31;62.66
78584;BME280;67880;46.082;18.234;2023-05-27T00:24:16;99851.44;;;19.26;62.40
78584;BME280;67880;46.082;18.234;2023-05-27T00:24:46;99853.50;;;19.31;62.58
78584;BME280;67880;46.082;18.234;2023-05-27T00:25:17;99852.03;;;19.28;62.27
78584;BME280;67880;46.082;18.234;2023-05-27T00:25:50;99857.06;;;19.25;61.91
78584;BME280;67880;46.082;18.234;2023-05-27T00:26:21;99847.66;;;19.27;62.42
78584;BME280;67880;46.082;18.234;2023-05-27T00:26:52;99852.88;;;19.29;62.30
78584;BME280;67880;46.082;18.234;2023-05-27T00:27:23;99848.69;;;19.26;62.48
78584;BME280;67880;46.082;18.234;2023-05-27T00:27:55;99853.09;;;19.27;62.40
78584;BME280;67880;46.082;18.234;2023-05-27T00:28:25;99854.56;;;19.23;62.42
78584;BME280;67880;46.082;18.234;2023-05-27T00:28:59;99851.00;;;19.23;63.00
78584;BME280;67880;46.082;18.234;2023-05-27T00:29:30;99848.06;;;19.24;62.70
78584;BME280;67880;46.082;18.234;2023-05-27T00:30:01;99847.66;;;19.20;62.92
78584;BME280;67880;46.082;18.234;2023-05-27T00:30:32;99854.97;;;19.27;62.70
78584;BME280;67880;46.082;18.234;2023-05-27T00:31:03;99845.56;;;19.23;62.28
78584;BME280;67880;46.082;18.234;2023-05-27T00:31:33;99839.47;;;19.27;63.01
78584;BME280;67880;46.082;18.234;2023-05-27T00:32:04;99846.59;;;19.35;62.33
78584;BME280;67880;46.082;18.234;2023-05-27T00:32:34;99843.03;;;19.34;62.70
78584;BME280;67880;46.082;18.234;2023-05-27T00:33:05;99851.59;;;19.38;62.58
78584;BME280;67880;46.082;18.234;2023-05-27T00:33:36;99857.25;;;19.36;62.84
78584;BME280;67880;46.082;18.234;2023-05-27T00:34:06;99856.00;;;19.39;62.31
78584;BME280;67880;46.082;18.234;2023-05-27T00:34:37;99855.38;;;19.37;62.55
78584;BME280;67880;46.082;18.234;2023-05-27T00:35:08;99852.44;;;19.38;62.51
78584;BME280;67880;46.082;18.234;2023-05-27T00:35:39;99850.56;;;19.39;62.53
78584;BME280;67880;46.082;18.234;2023-05-27T00:36:10;99853.47;;;19.37;63.00
78584;BME280;67880;46.082;18.234;2023-05-27T00:36:41;99853.91;;;19.34;63.65
78584;BME280;67880;46.082;18.234;2023-05-27T00:37:11;99848.88;;;19.31;64.39
78584;BME280;67880;46.082;18.234;2023-05-27T00:37:42;99848.69;;;19.33;64.08
78584;BME280;67880;46.082;18.234;2023-05-27T00:38:12;99861.25;;;19.34;64.63
78584;BME280;67880;46.082;18.234;2023-05-27T00:38:43;99854.75;;;19.35;65.08
78584;BME280;67880;46.082;18.234;2023-05-27T00:39:14;99849.91;;;19.37;66.13
78584;BME280;67880;46.082;18.234;2023-05-27T00:39:44;99849.94;;;19.30;66.24
78584;BME280;67880;46.082;18.234;2023-05-27T00:40:20;99858.53;;;19.20;67.56
78584;BME280;67880;46.082;18.234;2023-05-27T00:40:53;99859.38;;;19.21;66.93
78584;BME280;67880;46.082;18.234;2023-05-27T00:41:24;99857.72;;;19.20;67.36
78584;BME280;67880;46.082;18.234;2023-05-27T00:41:57;99851.63;;;19.18;67.58
78584;BME280;67880;46.082;18.234;2023-05-27T00:42:28;99851.84;;;19.10;67.54
78584;BME280;67880;46.082;18.234;2023-05-27T00:42:58;99857.50;;;19.15;68.06
78584;BME280;67880;46.082;18.234;2023-05-27T00:43:30;99856.22;;;19.11;67.23
78584;BME280;67880;46.082;18.234;2023-05-27T00:44:03;99857.91;;;19.05;68.00
78584;BME280;67880;46.082;18.234;2023-05-27T00:44:34;99857.50;;;19.02;68.32
78584;BME280;67880;46.082;18.234;2023-05-27T00:45:06;99860.44;;;19.00;68.28
78584;BME280;67880;46.082;18.234;2023-05-27T00:45:37;99851.84;;;18.97;68.28
78584;BME280;67880;46.082;18.234;2023-05-27T00:46:08;99851.63;;;18.91;68.88
78584;BME280;67880;46.082;18.234;2023-05-27T00:46:39;99852.69;;;18.90;69.16
78584;BME280;67880;46.082;18.234;2023-05-27T00:47:09;99853.94;;;18.88;69.44
78584;BME280;67880;46.082;18.234;2023-05-27T00:47:40;99851.22;;;18.88;68.27
78584;BME280;67880;46.082;18.234;2023-05-27T00:48:11;99855.19;;;18.85;69.10
78584;BME280;67880;46.082;18.234;2023-05-27T00:48:42;99848.28;;;18.83;68.36
78584;BME280;67880;46.082;18.234;2023-05-27T00:49:13;99847.84;;;18.79;68.56
78584;BME280;67880;46.082;18.234;2023-05-27T00:49:44;99862.72;;;18.83;68.64
78584;BME280;67880;46.082;18.234;2023-05-27T00:50:17;99850.78;;;18.84;68.44
78584;BME280;67880;46.082;18.234;2023-05-27T00:50:48;99861.44;;;18.86;67.77
78584;BME280;67880;46.082;18.234;2023-05-27T00:51:18;99860.41;;;18.80;68.27
78584;BME280;67880;46.082;18.234;2023-05-27T00:51:50;99858.13;;;18.84;67.54
78584;BME280;67880;46.082;18.234;2023-05-27T00:52:20;99855.38;;;18.84;68.38
78584;BME280;67880;46.082;18.234;2023-05-27T00:52:52;99859.16;;;18.83;68.15
78584;BME280;67880;46.082;18.234;2023-05-27T00:53:26;99856.00;;;18.86;68.88
78584;BME280;67880;46.082;18.234;2023-05-27T00:53:56;99847.22;;;18.84;67.56
78584;BME280;67880;46.082;18.234;2023-05-27T00:54:27;99858.94;;;18.84;67.48
78584;BME280;67880;46.082;18.234;2023-05-27T00:54:59;99857.28;;;18.83;68.73
78584;BME280;67880;46.082;18.234;2023-05-27T00:55:30;99860.41;;;18.87;67.18
78584;BME280;67880;46.082;18.234;2023-05-27T00:56:01;99860.84;;;18.84;67.90
78584;BME280;67880;46.082;18.234;2023-05-27T00:56:32;99855.59;;;18.82;67.73
78584;BME280;67880;46.082;18.234;2023-05-27T00:57:03;99852.06;;;18.82;67.68
78584;BME280;67880;46.082;18.234;2023-05-27T00:57:35;99856.84;;;18.80;68.08
78584;BME280;67880;46.082;18.234;2023-05-27T00:58:06;99855.38;;;18.84;68.53
78584;BME280;67880;46.082;18.234;2023-05-27T00:58:39;99867.09;;;18.84;68.30
78584;BME280;67880;46.082;18.234;2023-05-27T00:59:10;99862.50;;;18.85;66.89
78584;BME280;67880;46.082;18.234;2023-05-27T00:59:41;99867.09;;;18.84;67.54
78584;BME280;67880;46.082;18.234;2023-05-27T01:00:13;99866.91;;;18.86;67.55
78584;BME280;67880;46.082;18.234;2023-05-27T01:00:43;99866.06;;;18.85;68.66
78584;BME280;67880;46.082;18.234;2023-05-27T01:01:14;99869.00;;;18.84;68.67
78584;BME280;67880;46.082;18.234;2023-05-27T01:02:00;99869.63;;;18.86;68.36
78584;BME280;67880;46.082;18.234;2023-05-27T01:02:30;99873.59;;;18.83;67.39
78584;BME280;67880;46.082;18.234;2023-05-27T01:03:01;99862.28;;;18.86;67.88
78584;BME280;67880;46.082;18.234;2023-05-27T01:03:32;99868.38;;;18.88;69.15
78584;BME280;67880;46.082;18.234;2023-05-27T01:04:05;99871.28;;;18.87;68.50
78584;BME280;67880;46.082;18.234;2023-05-27T01:04:36;99864.81;;;18.81;68.52
78584;BME280;67880;46.082;18.234;2023-05-27T01:05:08;99873.38;;;18.85;68.44
78584;BME280;67880;46.082;18.234;2023-05-27T01:05:39;99870.03;;;18.83;68.87
78584;BME280;67880;46.082;18.234;2023-05-27T01:06:27;99870.03;;;18.83;69.40
78584;BME280;67880;46.082;18.234;2023-05-27T01:09:39;99873.16;;;18.73;69.80
78584;BME280;67880;46.082;18.234;2023-05-27T01:10:17;99865.44;;;18.70;67.29
78584;BME280;67880;46.082;18.234;2023-05-27T01:10:53;99861.25;;;18.74;67.44
78584;BME280;67880;46.082;18.234;2023-05-27T01:11:43;99862.94;;;18.75;67.76
78584;BME280;67880;46.082;18.234;2023-05-27T01:12:46;99858.72;;;18.73;67.42
78584;BME280;67880;46.082;18.234;2023-05-27T01:13:35;99853.72;;;18.70;69.51
78584;BME280;67880;46.082;18.234;2023-05-27T01:14:10;99859.38;;;18.68;69.88
78584;BME280;67880;46.082;18.234;2023-05-27T01:14:43;99855.13;;;18.65;72.30
78584;BME280;67880;46.082;18.234;2023-05-27T01:15:16;99865.78;;;18.60;70.71
78584;BME280;67880;46.082;18.234;2023-05-27T01:15:50;99858.06;;;18.64;69.39
78584;BME280;67880;46.082;18.234;2023-05-27T01:16:24;99859.72;;;18.65;69.74
78584;BME280;67880;46.082;18.234;2023-05-27T01:16:59;99864.53;;;18.63;70.22
78584;BME280;67880;46.082;18.234;2023-05-27T01:17:33;99859.72;;;18.58;68.45
78584;BME280;67880;46.082;18.234;2023-05-27T01:18:09;99857.81;;;18.52;67.90
78584;BME280;67880;46.082;18.234;2023-05-27T01:18:42;99858.66;;;18.46;70.31
78584;BME280;67880;46.082;18.234;2023-05-27T01:19:30;99853.66;;;18.50;68.71
78584;BME280;67880;46.082;18.234;2023-05-27T01:20:04;99857.81;;;18.52;68.36
78584;BME280;67880;46.082;18.234;2023-05-27T01:20:36;99856.38;;;18.50;70.93
78584;BME280;67880;46.082;18.234;2023-05-27T01:21:13;99858.44;;;18.54;70.34
78584;BME280;67880;46.082;18.234;2023-05-27T01:21:48;99855.34;;;18.57;69.69
78584;BME280;67880;46.082;18.234;2023-05-27T01:22:29;99856.16;;;18.51;70.26
78584;BME280;67880;46.082;18.234;2023-05-27T01:23:01;99855.72;;;18.48;70.91
78584;BME280;67880;46.082;18.234;2023-05-27T01:23:32;99855.94;;;18.53;70.31
78584;BME280;67880;46.082;18.234;2023-05-27T01:24:04;99856.59;;;18.55;69.46
78584;BME280;67880;46.082;18.234;2023-05-27T01:24:34;99848.63;;;18.53;68.62
78584;BME280;67880;46.082;18.234;2023-05-27T01:25:05;99846.53;;;18.49;68.69
78584;BME280;67880;46.082;18.234;2023-05-27T01:25:36;99849.44;;;18.47;69.54
78584;BME280;67880;46.082;18.234;2023-05-27T01:26:07;99849.66;;;18.46;69.00
78584;BME280;67880;46.082;18.234;2023-05-27T01:26:38;99848.38;;;18.48;69.47
78584;BME280;67880;46.082;18.234;2023-05-27T01:27:10;99850.94;;;18.50;69.41
78584;BME280;67880;46.082;18.234;2023-05-27T01:27:45;99847.38;;;18.49;69.92
78584;BME280;67880;46.082;18.234;2023-05-27T01:28:16;99845.88;;;18.47;68.08
78584;BME280;67880;46.082;18.234;2023-05-27T01:28:47;99847.38;;;18.49;68.12
78584;BME280;67880;46.082;18.234;2023-05-27T01:29:17;99846.72;;;18.47;69.74
78584;BME280;67880;46.082;18.234;2023-05-27T01:29:48;99847.56;;;18.48;69.33
78584;BME280;67880;46.082;18.234;2023-05-27T01:30:19;99842.94;;;18.48;68.78
78584;BME280;67880;46.082;18.234;2023-05-27T01:30:55;99840.66;;;18.45;70.27
78584;BME280;67880;46.082;18.234;2023-05-27T01:31:35;99840.44;;;18.47;69.36
78584;BME280;67880;46.082;18.234;2023-05-27T01:32:12;99844.22;;;18.46;69.98
78584;BME280;67880;46.082;18.234;2023-05-27T01:33:25;99840.88;;;18.44;67.92
78584;BME280;67880;46.082;18.234;2023-05-27T01:34:08;99837.09;;;18.45;67.68
78584;BME280;67880;46.082;18.234;2023-05-27T01:35:09;99837.31;;;18.43;68.96
78584;BME280;67880;46.082;18.234;2023-05-27T01:35:46;99833.34;;;18.46;68.07
78584;BME280;67880;46.082;18.234;2023-05-27T01:36:22;99827.28;;;18.44;67.36
78584;BME280;67880;46.082;18.234;2023-05-27T01:36:59;99833.97;;;18.48;67.84
78584;BME280;67880;46.082;18.234;2023-05-27T01:37:36;99827.50;;;18.49;66.74
78584;BME280;67880;46.082;18.234;2023-05-27T01:38:10;99829.19;;;18.50;66.93
78584;BME280;67880;46.082;18.234;2023-05-27T01:38:43;99823.91;;;18.48;67.10
78584;BME280;67880;46.082;18.234;2023-05-27T01:39:16;99822.91;;;18.49;67.92
78584;BME280;67880;46.082;18.234;2023-05-27T01:39:50;99827.06;;;18.52;67.41
78584;BME280;67880;46.082;18.234;2023-05-27T01:40:21;99818.91;;;18.52;67.34
78584;BME280;67880;46.082;18.234;2023-05-27T01:40:53;99826.88;;;18.53;67.82
78584;BME280;67880;46.082;18.234;2023-05-27T01:41:25;99826.25;;;18.51;68.29
78584;BME280;67880;46.082;18.234;2023-05-27T01:41:57;99827.50;;;18.49;68.79
78584;BME280;67880;46.082;18.234;2023-05-27T01:42:29;99820.78;;;18.45;68.00
78584;BME280;67880;46.082;18.234;2023-05-27T01:43:00;99825.41;;;18.44;68.65
78584;BME280;67880;46.082;18.234;2023-05-27T01:43:32;99817.88;;;18.46;67.83
78584;BME280;67880;46.082;18.234;2023-05-27T01:44:04;99826.44;;;18.43;67.61
78584;BME280;67880;46.082;18.234;2023-05-27T01:44:36;99826.44;;;18.43;68.56
78584;BME280;67880;46.082;18.234;2023-05-27T01:45:08;99829.78;;;18.38;68.08
78584;BME280;67880;46.082;18.234;2023-05-27T01:45:39;99823.50;;;18.45;67.58
78584;BME280;67880;46.082;18.234;2023-05-27T01:46:10;99828.53;;;18.48;67.71
78584;BME280;67880;46.082;18.234;2023-05-27T01:46:41;99827.28;;;18.50;67.01
78584;BME280;67880;46.082;18.234;2023-05-27T01:47:11;99830.00;;;18.50;67.45
78584;BME280;67880;46.082;18.234;2023-05-27T01:47:43;99825.81;;;18.48;67.20
78584;BME280;67880;46.082;18.234;2023-05-27T01:48:15;99818.69;;;18.47;67.05
78584;BME280;67880;46.082;18.234;2023-05-27T01:48:46;99828.13;;;18.51;66.56
78584;BME280;67880;46.082;18.234;2023-05-27T01:49:32;99823.31;;;18.46;67.77
78584;BME280;67880;46.082;18.234;2023-05-27T01:50:18;99819.53;;;18.40;68.20
78584;BME280;67880;46.082;18.234;2023-05-27T01:51:04;99819.75;;;18.39;67.37
78584;BME280;67880;46.082;18.234;2023-05-27T01:51:35;99826.22;;;18.38;67.81
78584;BME280;67880;46.082;18.234;2023-05-27T01:52:06;99819.31;;;18.35;67.91
78584;BME280;67880;46.082;18.234;2023-05-27T01:52:39;99818.47;;;18.35;68.00
78584;BME280;67880;46.082;18.234;2023-05-27T01:53:10;99813.25;;;18.33;67.55
78584;BME280;67880;46.082;18.234;2023-05-27T01:53:42;99821.41;;;18.33;67.61
78584;BME280;67880;46.082;18.234;2023-05-27T01:54:12;99826.41;;;18.30;67.89
78584;BME280;67880;46.082;18.234;2023-05-27T01:54:43;99825.59;;;18.29;68.21
78584;BME280;67880;46.082;18.234;2023-05-27T01:55:13;99832.03;;;18.28;68.13
78584;BME280;67880;46.082;18.234;2023-05-27T01:55:44;99827.84;;;18.26;68.52
78584;BME280;67880;46.082;18.234;2023-05-27T01:56:16;99824.94;;;18.27;68.40
78584;BME280;67880;46.082;18.234;2023-05-27T01:56:46;99826.81;;;18.27;68.31
78584;BME280;67880;46.082;18.234;2023-05-27T01:57:18;99825.97;;;18.26;69.08
78584;BME280;67880;46.082;18.234;2023-05-27T01:57:49;99829.31;;;18.22;68.67
78584;BME280;67880;46.082;18.234;2023-05-27T01:58:20;99828.69;;;18.20;67.99
78584;BME280;67880;46.082;18.234;2023-05-27T01:58:50;99826.38;;;18.17;68.88
78584;BME280;67880;46.082;18.234;2023-05-27T01:59:21;99827.63;;;18.14;68.67
78584;BME280;67880;46.082;18.234;2023-05-27T01:59:51;99829.50;;;18.13;68.38
78584;BME280;67880;46.082;18.234;2023-05-27T02:00:23;99824.28;;;18.12;69.50
78584;BME280;67880;46.082;18.234;2023-05-27T02:00:54;99826.78;;;18.13;68.42
78584;BME280;67880;46.082;18.234;2023-05-27T02:01:25;99829.09;;;18.10;69.03
78584;BME280;67880;46.082;18.234;2023-05-27T02:01:55;99823.00;;;18.08;69.75
78584;BME280;67880;46.082;18.234;2023-05-27T02:02:26;99817.53;;;18.01;69.17
78584;BME280;67880;46.082;18.234;2023-05-27T02:02:56;99826.97;;;18.05;68.90
78584;BME280;67880;46.082;18.234;2023-05-27T02:03:27;99826.72;;;18.00;69.52
78584;BME280;67880;46.082;18.234;2023-05-27T02:03:58;99824.84;;;18.01;69.45
78584;BME280;67880;46.082;18.234;2023-05-27T02:04:28;99825.06;;;17.99;69.21
78584;BME280;67880;46.082;18.234;2023-05-27T02:04:59;99827.78;;;17.99;69.19
78584;BME280;67880;46.082;18.234;2023-05-27T02:05:29;99825.06;;;17.99;69.91
78584;BME280;67880;46.082;18.234;2023-05-27T02:06:00;99833.00;;;18.01;69.55
78584;BME280;67880;46.082;18.234;2023-05-27T02:06:31;99828.81;;;17.98;69.80
78584;BME280;67880;46.082;18.234;2023-05-27T02:07:02;99827.34;;;18.02;68.93
78584;BME280;67880;46.082;18.234;2023-05-27T02:07:33;99822.13;;;18.01;69.18
78584;BME280;67880;46.082;18.234;2023-05-27T02:08:04;99821.31;;;18.00;70.04
78584;BME280;67880;46.082;18.234;2023-05-27T02:08:35;99823.19;;;18.00;69.46
78584;BME280;67880;46.082;18.234;2023-05-27T02:09:05;99825.06;;;17.99;69.21
78584;BME280;67880;46.082;18.234;2023-05-27T02:09:37;99824.03;;;18.00;68.81
78584;BME280;67880;46.082;18.234;2023-05-27T02:10:08;99819.03;;;18.04;68.65
78584;BME280;67880;46.082;18.234;2023-05-27T02:10:38;99831.34;;;18.06;68.86
78584;BME280;67880;46.082;18.234;2023-05-27T02:11:09;99825.91;;;18.06;68.70
78584;BME280;67880;46.082;18.234;2023-05-27T02:11:40;99822.16;;;18.07;68.58
78584;BME280;67880;46.082;18.234;2023-05-27T02:12:10;99823.19;;;18.06;69.21
78584;BME280;67880;46.082;18.234;2023-05-27T02:12:41;99816.72;;;18.07;67.84
78584;BME280;67880;46.082;18.234;2023-05-27T02:13:11;99818.59;;;18.07;68.33
78584;BME280;67880;46.082;18.234;2023-05-27T02:13:42;99824.28;;;18.12;68.18
78584;BME280;67880;46.082;18.234;2023-05-27T02:14:13;99815.28;;;18.11;68.24
78584;BME280;67880;46.082;18.234;2023-05-27T02:14:44;99821.34;;;18.13;68.12
78584;BME280;67880;46.082;18.234;2023-05-27T02:15:15;99819.66;;;18.12;68.79
78584;BME280;67880;46.082;18.234;2023-05-27T02:15:45;99824.28;;;18.12;68.28
78584;BME280;67880;46.082;18.234;2023-05-27T02:16:16;99820.50;;;18.13;68.21
78584;BME280;67880;46.082;18.234;2023-05-27T02:16:47;99828.22;;;18.16;67.95
78584;BME280;67880;46.082;18.234;2023-05-27T02:17:19;99824.69;;;18.16;67.76
78584;BME280;67880;46.082;18.234;2023-05-27T02:17:50;99827.22;;;18.17;67.90
78584;BME280;67880;46.082;18.234;2023-05-27T02:18:25;99819.25;;;18.16;68.07
78584;BME280;67880;46.082;18.234;2023-05-27T02:18:55;99819.47;;;18.14;68.01
78584;BME280;67880;46.082;18.234;2023-05-27T02:19:26;99826.78;;;18.13;68.37
78584;BME280;67880;46.082;18.234;2023-05-27T02:19:57;99820.94;;;18.17;67.95
78584;BME280;67880;46.082;18.234;2023-05-27T02:20:28;99821.78;;;18.17;67.82
78584;BME280;67880;46.082;18.234;2023-05-27T02:20:59;99830.56;;;18.19;67.96
78584;BME280;67880;46.082;18.234;2023-05-27T02:21:35;99822.41;;;18.19;67.78
78584;BME280;67880;46.082;18.234;2023-05-27T02:22:07;99832.22;;;18.20;67.62
78584;BME280;67880;46.082;18.234;2023-05-27T02:22:37;99829.31;;;18.22;67.49
78584;BME280;67880;46.082;18.234;2023-05-27T02:23:08;99833.72;;;18.23;67.45
78584;BME280;67880;46.082;18.234;2023-05-27T02:23:38;99826.59;;;18.22;67.66
78584;BME280;67880;46.082;18.234;2023-05-27T02:24:09;99833.28;;;18.19;67.18
78584;BME280;67880;46.082;18.234;2023-05-27T02:24:40;99824.50;;;18.17;67.98
78584;BME280;67880;46.082;18.234;2023-05-27T02:25:10;99828.47;;;18.21;67.57
78584;BME280;67880;46.082;18.234;2023-05-27T02:25:41;99823.88;;;18.22;67.66
78584;BME280;67880;46.082;18.234;2023-05-27T02:26:12;99823.25;;;18.20;67.57
78584;BME280;67880;46.082;18.234;2023-05-27T02:26:42;99828.47;;;18.21;68.19
78584;BME280;67880;46.082;18.234;2023-05-27T02:27:13;99827.84;;;18.19;68.42
78584;BME280;67880;46.082;18.234;2023-05-27T02:27:43;99824.50;;;18.17;67.77
78584;BME280;67880;46.082;18.234;2023-05-27T02:28:18;99824.28;;;18.19;68.03
78584;BME280;67880;46.082;18.234;2023-05-27T02:28:49;99832.22;;;18.20;67.85
78584;BME280;67880;46.082;18.234;2023-05-27T02:29:20;99832.22;;;18.20;67.91
78584;BME280;67880;46.082;18.234;2023-05-27T02:29:50;99826.59;;;18.22;67.98
78584;BME280;67880;46.082;18.234;2023-05-27T02:30:21;99828.06;;;18.24;67.60
78584;BME280;67880;46.082;18.234;2023-05-27T02:30:52;99832.84;;;18.22;67.64
78584;BME280;67880;46.082;18.234;2023-05-27T02:31:22;99833.50;;;18.18;68.23
78584;BME280;67880;46.082;18.234;2023-05-27T02:31:53;99825.97;;;18.20;68.07
78584;BME280;67880;46.082;18.234;2023-05-27T02:32:24;99825.09;;;18.12;67.90
78584;BME280;67880;46.082;18.234;2023-05-27T02:32:54;99825.47;;;18.03;68.34
78584;BME280;67880;46.082;18.234;2023-05-27T02:33:25;99831.53;;;17.98;68.72
78584;BME280;67880;46.082;18.234;2023-05-27T02:33:56;99827.34;;;17.96;68.77
78584;BME280;67880;46.082;18.234;2023-05-27T02:34:27;99830.72;;;17.98;68.51
78584;BME280;67880;46.082;18.234;2023-05-27T02:34:58;99828.16;;;17.96;69.24
78584;BME280;67880;46.082;18.234;2023-05-27T02:35:28;99827.13;;;17.91;68.80
78584;BME280;67880;46.082;18.234;2023-05-27T02:35:59;99829.19;;;17.89;69.21
78584;BME280;67880;46.082;18.234;2023-05-27T02:36:29;99831.50;;;17.85;69.55
78584;BME280;67880;46.082;18.234;2023-05-27T02:37:00;99822.50;;;17.84;69.65
78584;BME280;67880;46.082;18.234;2023-05-27T02:37:31;99830.41;;;17.79;69.17
78584;BME280;67880;46.082;18.234;2023-05-27T02:38:01;99825.56;;;17.75;69.46
78584;BME280;67880;46.082;18.234;2023-05-27T02:38:32;99829.34;;;17.74;69.32
78584;BME280;67880;46.082;18.234;2023-05-27T02:39:03;99824.75;;;17.74;69.28
78584;BME280;67880;46.082;18.234;2023-05-27T02:39:33;99828.22;;;17.68;69.91
78584;BME280;67880;46.082;18.234;2023-05-27T02:40:04;99835.13;;;17.71;69.71
78584;BME280;67880;46.082;18.234;2023-05-27T02:40:35;99838.31;;;17.74;69.81
78584;BME280;67880;46.082;18.234;2023-05-27T02:41:06;99832.06;;;17.74;69.45
78584;BME280;67880;46.082;18.234;2023-05-27T02:41:37;99830.19;;;17.74;70.18
78584;BME280;67880;46.082;18.234;2023-05-27T02:42:07;99821.19;;;17.74;69.85
78584;BME280;67880;46.082;18.234;2023-05-27T02:42:38;99822.88;;;17.75;69.96
78584;BME280;67880;46.082;18.234;2023-05-27T02:43:09;99832.63;;;17.69;70.07
78584;BME280;67880;46.082;18.234;2023-05-27T02:43:39;99828.50;;;17.73;69.66
78584;BME280;67880;46.082;18.234;2023-05-27T02:44:11;99818.00;;;17.70;70.43
78584;BME280;67880;46.082;18.234;2023-05-27T02:44:41;99817.84;;;17.72;69.42
78584;BME280;67880;46.082;18.234;2023-05-27T02:45:12;99825.78;;;17.73;69.17
78584;BME280;67880;46.082;18.234;2023-05-27T02:45:42;99825.19;;;17.78;68.99
78584;BME280;67880;46.082;18.234;2023-05-27T02:46:13;99819.34;;;17.81;69.35
78584;BME280;67880;46.082;18.234;2023-05-27T02:46:44;99828.31;;;17.81;69.26
78584;BME280;67880;46.082;18.234;2023-05-27T02:47:14;99827.03;;;17.77;69.45
78584;BME280;67880;46.082;18.234;2023-05-27T02:47:45;99826.22;;;17.83;68.67
78584;BME280;67880;46.082;18.234;2023-05-27T02:48:16;99827.50;;;17.88;69.16
78584;BME280;67880;46.082;18.234;2023-05-27T02:48:46;99825.25;;;17.91;68.58
78584;BME280;67880;46.082;18.234;2023-05-27T02:49:17;99832.34;;;17.92;68.82
78584;BME280;67880;46.082;18.234;2023-05-27T02:49:48;99831.50;;;17.92;69.23
78584;BME280;67880;46.082;18.234;2023-05-27T02:50:19;99830.25;;;17.94;68.73
78584;BME280;67880;46.082;18.234;2023-05-27T02:50:49;99830.47;;;17.93;68.82
78584;BME280;67880;46.082;18.234;2023-05-27T02:51:21;99825.66;;;17.95;68.88
78584;BME280;67880;46.082;18.234;2023-05-27T02:51:52;99831.72;;;17.97;68.71